Time;durP1;ratioP1;P1;durP2;ratioP2;P2;SDS_P1;SDS_P2;PMS_P1;PMS_P2;Temp;Humidity;BMP_temperature;BMP_pressure;BME280_temperature;BME280_humidity;BME280_pressure;Samples;Min_cycle;Max_cycle;Signal;HPM_P1;HPM_P2
2022/11/11 00:01:06;;;;;;;5.40;3.07;;;11.80;99.90;;;;;;5116440;27;20447;-36
2022/11/11 00:03:32;;;;;;;5.80;2.50;;;11.80;99.90;;;;;;5122714;27;20431;-37
2022/11/11 00:06:02;;;;;;;2.63;2.40;;;11.70;99.90;;;;;;5111644;28;20429;-37
2022/11/11 00:08:28;;;;;;;3.90;2.60;;;11.70;99.90;;;;;;5111261;27;20444;-36
2022/11/11 00:11:03;;;;;;;3.97;2.97;;;11.60;99.90;;;;;;5123631;27;20907;-37
2022/11/11 00:13:29;;;;;;;4.90;2.57;;;11.50;99.90;;;;;;5114936;27;20429;-38
2022/11/11 00:15:55;;;;;;;3.83;2.63;;;11.50;99.90;;;;;;5111632;28;20414;-36
2022/11/11 00:26:41;;;;;;;4.63;2.83;;;11.50;99.90;;;;;;5111434;28;20846;-36
2022/11/11 00:29:07;;;;;;;4.67;2.43;;;11.50;99.90;;;;;;5110974;28;20434;-37
2022/11/11 00:31:34;;;;;;;4.90;2.97;;;11.50;99.90;;;;;;5111496;28;20261;-37
2022/11/11 00:34:00;;;;;;;5.87;3.07;;;11.60;99.90;;;;;;5110598;28;20249;-37
2022/11/11 00:36:25;;;;;;;3.40;2.60;;;11.50;99.90;;;;;;5109889;28;20461;-36
2022/11/11 00:38:54;;;;;;;2.73;2.53;;;11.50;99.90;;;;;;5110517;28;20188;-37
2022/11/11 00:41:22;;;;;;;4.23;2.90;;;11.40;99.90;;;;;;5111156;28;20308;-36
2022/11/11 00:43:48;;;;;;;2.70;2.50;;;11.40;99.90;;;;;;5109388;28;20494;-37
2022/11/11 00:51:44;;;;;;;6.70;3.97;;;11.30;99.90;;;;;;5111146;28;20802;-37
2022/11/11 00:54:12;;;;;;;6.77;3.03;;;11.30;99.90;;;;;;5110595;28;21006;-36
2022/11/11 00:56:38;;;;;;;6.53;3.40;;;11.40;99.90;;;;;;5111083;28;20500;-37
2022/11/11 00:59:05;;;;;;;3.10;2.60;;;11.40;99.90;;;;;;5110225;28;20433;-36
2022/11/11 01:01:32;;;;;;;5.37;3.13;;;11.40;99.90;;;;;;5111013;28;20802;-36
2022/11/11 01:03:58;;;;;;;3.50;2.70;;;11.30;99.90;;;;;;5110396;28;20424;-36
2022/11/11 01:06:24;;;;;;;5.20;3.00;;;11.20;99.90;;;;;;5110623;28;20609;-36
2022/11/11 01:08:50;;;;;;;3.33;2.50;;;11.30;99.90;;;;;;5110205;28;20606;-37
2022/11/11 01:11:18;;;;;;;4.23;3.00;;;11.40;99.90;;;;;;5110936;28;20855;-36
2022/11/11 01:13:44;;;;;;;7.47;3.23;;;11.30;99.90;;;;;;5108730;28;20194;-37
2022/11/11 01:16:19;;;;;;;3.33;2.77;;;11.40;99.90;;;;;;5110573;28;20513;-37
2022/11/11 01:18:45;;;;;;;4.33;2.77;;;11.30;99.90;;;;;;5110428;28;20549;-37
2022/11/11 01:21:29;;;;;;;3.70;3.10;;;11.30;99.90;;;;;;5110867;28;20505;-36
2022/11/11 01:23:55;;;;;;;6.53;2.67;;;11.30;99.90;;;;;;5126023;27;20412;-36
2022/11/11 01:26:22;;;;;;;3.80;2.90;;;11.30;99.90;;;;;;5131012;27;20965;-36
2022/11/11 01:28:49;;;;;;;5.70;3.10;;;11.40;99.90;;;;;;5130655;27;20179;-36
2022/11/11 01:31:17;;;;;;;3.37;2.83;;;11.40;99.90;;;;;;5130895;27;20563;-36
2022/11/11 01:33:42;;;;;;;5.60;3.10;;;11.40;99.90;;;;;;5129526;27;20934;-36
2022/11/11 01:36:11;;;;;;;4.00;2.33;;;11.40;99.90;;;;;;5130481;27;20440;-37
2022/11/11 01:38:38;;;;;;;3.13;2.83;;;11.40;99.90;;;;;;5130457;27;20175;-36
2022/11/11 01:43:50;;;;;;;4.17;2.43;;;11.40;99.90;;;;;;5130264;27;20417;-36
2022/11/11 01:46:30;;;;;;;4.77;2.50;;;11.40;99.90;;;;;;5113472;27;20452;-37
2022/11/11 01:49:21;;;;;;;5.07;2.20;;;11.40;99.90;;;;;;5109804;28;20190;-37
2022/11/11 01:52:25;;;;;;;5.13;3.10;;;11.40;99.90;;;;;;5109215;28;20806;-36
2022/11/11 01:54:55;;;;;;;4.33;2.90;;;11.50;99.90;;;;;;5066940;28;20421;-36
2022/11/11 01:57:43;;;;;;;3.77;2.77;;;11.40;99.90;;;;;;5109941;28;20457;-36
2022/11/11 02:00:14;;;;;;;4.43;2.57;;;11.40;99.90;;;;;;5109467;28;20413;-36
2022/11/11 02:02:43;;;;;;;2.80;2.60;;;11.50;99.90;;;;;;5109232;28;20418;-36
2022/11/11 02:08:31;;;;;;;5.30;2.47;;;11.40;99.90;;;;;;5099232;28;20840;-36
2022/11/11 02:11:01;;;;;;;3.33;2.53;;;11.40;99.90;;;;;;5109515;28;20447;-36
2022/11/11 02:16:13;;;;;;;6.00;3.17;;;11.50;99.90;;;;;;5109453;28;20551;-37
2022/11/11 02:18:39;;;;;;;3.20;2.40;;;11.40;99.90;;;;;;5109179;28;20521;-36
2022/11/11 02:21:05;;;;;;;6.97;2.60;;;11.40;99.90;;;;;;5109468;28;20395;-36
2022/11/11 02:23:38;;;;;;;4.00;2.70;;;11.40;99.90;;;;;;5121333;27;20476;-37
2022/11/11 02:26:05;;;;;;;3.00;2.50;;;11.40;99.90;;;;;;5130273;27;20376;-36
2022/11/11 02:28:32;;;;;;;4.97;2.40;;;11.40;99.90;;;;;;5124772;27;20492;-36
2022/11/11 02:30:58;;;;;;;2.43;2.10;;;11.40;99.90;;;;;;5109249;28;20459;-36
2022/11/11 02:33:23;;;;;;;4.77;2.33;;;11.50;99.90;;;;;;5107807;28;20814;-37
2022/11/11 02:35:57;;;;;;;5.53;2.53;;;11.40;99.90;;;;;;5109175;28;20180;-36
2022/11/11 02:38:24;;;;;;;2.70;2.50;;;11.50;99.90;;;;;;5108737;28;20726;-36
2022/11/11 02:43:34;;;;;;;3.70;2.50;;;11.50;99.90;;;;;;5108856;28;20891;-36
2022/11/11 02:46:02;;;;;;;3.17;2.60;;;11.50;99.90;;;;;;5109018;28;20479;-36
2022/11/11 02:48:27;;;;;;;3.30;2.80;;;11.40;99.90;;;;;;5108710;28;20176;-36
2022/11/11 02:50:53;;;;;;;4.13;2.43;;;11.50;99.90;;;;;;5108915;28;20478;-37
2022/11/11 02:53:19;;;;;;;2.73;2.30;;;11.40;99.90;;;;;;5108942;28;20420;-36
2022/11/11 02:55:45;;;;;;;3.47;2.33;;;11.40;99.90;;;;;;5108725;28;20226;-37
2022/11/11 02:58:12;;;;;;;2.70;2.27;;;11.40;99.90;;;;;;5109083;28;20425;-36
2022/11/11 03:00:37;;;;;;;4.90;3.00;;;11.40;99.90;;;;;;5108813;28;20183;-36
2022/11/11 03:03:03;;;;;;;5.20;2.23;;;11.40;99.90;;;;;;5108335;28;20430;-36
2022/11/11 03:05:29;;;;;;;2.80;2.60;;;11.40;99.90;;;;;;5108897;28;20739;-36
2022/11/11 03:07:54;;;;;;;5.60;3.40;;;11.40;99.90;;;;;;5109124;28;20202;-36
2022/11/11 03:10:20;;;;;;;3.73;2.57;;;11.40;99.90;;;;;;5108421;28;20184;-36
2022/11/11 03:12:45;;;;;;;4.33;2.40;;;11.40;99.90;;;;;;5108450;28;20183;-36
2022/11/11 03:15:11;;;;;;;4.50;2.80;;;11.30;99.90;;;;;;5108631;28;20172;-36
2022/11/11 03:17:40;;;;;;;3.87;3.00;;;11.40;99.90;;;;;;5108429;28;20203;-36
2022/11/11 03:23:03;;;;;;;4.23;2.60;;;11.40;99.90;;;;;;5108576;28;20418;-36
2022/11/11 03:25:38;;;;;;;3.50;2.60;;;11.30;99.90;;;;;;5108518;28;20410;-36
2022/11/11 03:28:08;;;;;;;3.50;2.50;;;11.30;99.90;;;;;;5107073;28;20635;-36
2022/11/11 03:30:34;;;;;;;2.87;2.67;;;11.30;99.90;;;;;;5108359;28;20470;-36
2022/11/11 03:33:00;;;;;;;4.80;2.80;;;11.30;99.90;;;;;;5106754;28;20432;-36
2022/11/11 03:35:26;;;;;;;3.73;3.00;;;11.30;99.90;;;;;;5108730;28;20417;-36
2022/11/11 03:40:36;;;;;;;4.73;2.40;;;11.10;99.90;;;;;;5107871;28;20440;-36
2022/11/11 03:43:02;;;;;;;4.00;2.50;;;11.10;99.90;;;;;;5108072;28;20421;-36
2022/11/11 03:45:27;;;;;;;6.17;2.70;;;11.10;99.90;;;;;;5108371;28;20179;-36
2022/11/11 03:47:53;;;;;;;3.93;2.83;;;11.10;99.90;;;;;;5108322;28;20180;-36
2022/11/11 03:50:20;;;;;;;5.40;2.53;;;11.10;99.90;;;;;;5108379;28;20194;-36
2022/11/11 03:52:46;;;;;;;2.80;2.43;;;11.20;99.90;;;;;;5108536;28;20760;-36
2022/11/11 03:55:12;;;;;;;5.43;2.37;;;11.20;99.90;;;;;;5107829;28;20646;-37
2022/11/11 03:57:44;;;;;;;4.80;2.47;;;11.20;99.90;;;;;;5108405;28;20218;-36
2022/11/11 04:00:13;;;;;;;2.47;2.00;;;11.20;99.90;;;;;;5107812;28;20418;-37
2022/11/11 04:10:59;;;;;;;2.23;2.03;;;11.10;99.90;;;;;;5108164;28;20419;-36
2022/11/11 04:16:10;;;;;;;2.43;1.60;;;11.20;99.90;;;;;;5111346;28;20941;-36
2022/11/11 04:26:58;;;;;;;2.17;1.90;;;11.20;99.90;;;;;;5111611;28;20791;-36
2022/11/11 04:29:27;;;;;;;3.13;2.37;;;11.10;99.90;;;;;;5111223;28;20422;-36
2022/11/11 04:32:37;;;;;;;3.17;1.90;;;11.10;99.90;;;;;;5110378;28;20446;-36
2022/11/11 04:35:13;;;;;;;2.33;1.83;;;11.10;99.90;;;;;;5111592;28;20430;-36
2022/11/11 04:41:02;;;;;;;2.40;2.13;;;11.10;99.90;;;;;;5111319;28;20552;-36
2022/11/11 04:43:18;;;;;;;2.03;1.87;;;11.10;99.90;;;;;;5110897;28;20428;-36
2022/11/11 04:45:43;;;;;;;2.50;2.30;;;11.00;99.90;;;;;;5111204;28;20429;-37
2022/11/11 04:48:11;;;;;;;2.60;1.90;;;11.00;99.90;;;;;;5111175;28;20227;-36
2022/11/11 04:50:39;;;;;;;5.20;2.37;;;11.00;99.90;;;;;;5111005;28;20190;-36
2022/11/11 04:53:07;;;;;;;2.40;2.20;;;11.00;99.90;;;;;;5110830;28;20413;-36
2022/11/11 04:58:20;;;;;;;4.43;2.67;;;11.10;99.90;;;;;;5110923;28;20453;-36
2022/11/11 05:00:46;;;;;;;3.57;2.30;;;11.00;99.90;;;;;;5110632;28;20417;-36
2022/11/11 05:03:17;;;;;;;3.77;2.40;;;11.00;99.90;;;;;;5110594;28;20432;-36
2022/11/11 05:08:55;;;;;;;3.37;2.00;;;11.00;99.90;;;;;;5110427;28;20425;-36
2022/11/11 05:11:40;;;;;;;3.90;2.20;;;11.00;99.90;;;;;;5111101;28;20771;-37
2022/11/11 05:22:39;;;;;;;3.23;2.20;;;11.10;99.90;;;;;;5110338;28;20501;-38
2022/11/11 05:27:53;;;;;;;3.73;1.83;;;11.10;99.90;;;;;;5110515;28;20645;-36
2022/11/11 05:30:20;;;;;;;2.03;1.80;;;11.00;99.90;;;;;;5109843;28;20984;-36
2022/11/11 05:32:45;;;;;;;4.00;2.00;;;10.90;99.90;;;;;;5108710;27;20791;-36
2022/11/11 05:35:12;;;;;;;3.33;2.10;;;10.90;99.90;;;;;;5109881;28;20417;-36
2022/11/11 05:37:38;;;;;;;4.27;1.60;;;10.90;99.90;;;;;;5110159;28;20461;-36
2022/11/11 05:40:04;;;;;;;2.20;1.77;;;10.80;99.90;;;;;;5109827;28;20745;-36
2022/11/11 05:42:30;;;;;;;3.83;2.40;;;10.80;99.90;;;;;;5098954;27;21290;-36
2022/11/11 05:44:56;;;;;;;4.57;2.37;;;10.80;99.90;;;;;;5118569;27;20449;-38
2022/11/11 05:47:22;;;;;;;2.57;1.70;;;10.80;99.90;;;;;;5119905;27;20641;-36
2022/11/11 05:49:47;;;;;;;2.93;2.63;;;10.80;99.90;;;;;;5109384;28;20249;-36
2022/11/11 05:52:15;;;;;;;2.03;1.83;;;10.80;99.90;;;;;;5109971;28;20172;-37
2022/11/11 05:54:41;;;;;;;2.23;2.00;;;10.80;99.90;;;;;;5110806;27;20349;-37
2022/11/11 05:57:07;;;;;;;2.43;1.80;;;10.90;99.90;;;;;;5121930;27;20642;-36
2022/11/11 05:59:33;;;;;;;2.60;2.00;;;10.90;99.90;;;;;;5130123;27;20496;-37
2022/11/11 06:01:59;;;;;;;2.83;2.10;;;10.80;99.90;;;;;;5130298;27;20530;-37
2022/11/11 06:04:25;;;;;;;3.33;2.20;;;10.80;99.90;;;;;;5129571;27;20183;-36
2022/11/11 06:06:50;;;;;;;1.50;1.33;;;10.80;99.90;;;;;;5128927;27;20201;-37
2022/11/11 06:09:16;;;;;;;3.40;2.00;;;10.70;99.90;;;;;;5129863;27;20227;-37
2022/11/11 06:11:42;;;;;;;2.13;1.77;;;10.70;99.90;;;;;;5128820;27;20498;-37
2022/11/11 06:14:07;;;;;;;3.00;1.83;;;10.70;99.90;;;;;;5130472;27;20259;-37
2022/11/11 06:16:33;;;;;;;2.17;1.80;;;10.60;99.90;;;;;;5129830;27;20197;-37
2022/11/11 06:18:59;;;;;;;3.97;2.53;;;10.60;99.90;;;;;;5129567;27;20636;-36
2022/11/11 06:21:26;;;;;;;2.50;2.27;;;10.60;99.90;;;;;;5115218;27;20667;-37
2022/11/11 06:23:51;;;;;;;2.90;2.00;;;10.70;99.90;;;;;;5124155;27;20171;-37
2022/11/11 06:26:18;;;;;;;3.00;2.10;;;10.70;99.90;;;;;;5129936;27;20427;-37
2022/11/11 06:28:49;;;;;;;2.40;2.17;;;10.80;99.90;;;;;;5122295;27;20568;-37
2022/11/11 06:31:17;;;;;;;2.20;2.00;;;10.80;99.90;;;;;;5119719;27;20417;-36
2022/11/11 06:33:43;;;;;;;3.50;2.10;;;10.80;99.90;;;;;;5118653;27;20437;-36
2022/11/11 06:36:12;;;;;;;3.63;2.13;;;10.80;99.90;;;;;;5129447;27;20767;-36
2022/11/11 06:38:38;;;;;;;3.53;2.40;;;10.90;99.90;;;;;;5129132;27;20696;-36
2022/11/11 06:41:04;;;;;;;3.93;2.10;;;10.90;99.90;;;;;;5117882;27;20427;-36
2022/11/11 06:43:30;;;;;;;2.63;2.17;;;10.90;99.90;;;;;;5114036;27;20470;-36
2022/11/11 06:45:56;;;;;;;3.73;2.30;;;10.90;99.90;;;;;;5128855;27;20813;-36
2022/11/11 06:48:23;;;;;;;2.70;1.70;;;10.90;99.90;;;;;;5129235;27;20568;-37
2022/11/11 06:50:49;;;;;;;3.83;2.00;;;10.90;99.90;;;;;;5114948;27;20475;-36
2022/11/11 06:53:17;;;;;;;1.93;1.63;;;10.90;99.90;;;;;;5124658;27;20974;-36
2022/11/11 06:55:43;;;;;;;4.27;2.33;;;10.90;99.90;;;;;;5129645;27;20208;-36
2022/11/11 06:58:11;;;;;;;1.93;1.73;;;10.90;99.90;;;;;;5129381;27;20951;-37
2022/11/11 07:00:38;;;;;;;2.90;1.90;;;10.90;99.90;;;;;;5111169;27;20263;-36
2022/11/11 07:03:05;;;;;;;2.13;1.37;;;10.90;99.90;;;;;;5119029;27;20437;-37
2022/11/11 07:05:32;;;;;;;3.80;1.93;;;10.90;99.90;;;;;;5127073;27;20459;-37
2022/11/11 07:08:01;;;;;;;2.87;2.30;;;10.80;99.90;;;;;;5129705;27;20413;-36
2022/11/11 07:10:27;;;;;;;2.97;2.13;;;10.90;99.90;;;;;;5129190;27;20408;-37
2022/11/11 07:12:53;;;;;;;2.47;1.77;;;10.80;99.90;;;;;;5127943;28;20424;-37
2022/11/11 07:15:18;;;;;;;3.60;2.17;;;10.80;99.90;;;;;;5128804;27;20613;-36
2022/11/11 07:17:44;;;;;;;3.07;2.00;;;10.80;99.90;;;;;;5129332;27;20715;-36
2022/11/11 07:20:10;;;;;;;5.00;2.70;;;10.80;99.90;;;;;;5102094;27;20275;-36
2022/11/11 07:22:36;;;;;;;6.60;2.50;;;10.80;99.90;;;;;;5092566;28;20216;-36
2022/11/11 07:25:02;;;;;;;3.67;2.20;;;10.80;99.90;;;;;;5113253;28;20433;-36
2022/11/11 07:27:27;;;;;;;5.53;2.60;;;10.80;99.90;;;;;;5127157;27;20198;-36
2022/11/11 07:29:53;;;;;;;3.97;2.23;;;10.70;99.90;;;;;;5103157;28;20425;-36
2022/11/11 07:32:19;;;;;;;3.20;1.93;;;10.70;99.90;;;;;;5096092;28;20216;-36
2022/11/11 07:34:44;;;;;;;3.07;2.20;;;10.80;99.90;;;;;;5096387;28;20307;-36
2022/11/11 07:37:10;;;;;;;2.83;2.33;;;10.90;99.90;;;;;;5088636;28;20208;-36
2022/11/11 07:39:36;;;;;;;2.63;2.30;;;11.00;99.90;;;;;;5094534;28;20176;-36
2022/11/11 07:42:01;;;;;;;3.13;2.47;;;11.10;99.90;;;;;;5096152;28;20173;-36
2022/11/11 07:44:27;;;;;;;3.20;2.40;;;11.10;99.90;;;;;;5088766;28;20295;-36
2022/11/11 07:46:53;;;;;;;3.03;2.23;;;11.00;99.90;;;;;;5102740;28;20184;-36
2022/11/11 07:49:18;;;;;;;2.20;1.80;;;11.10;99.90;;;;;;5108065;28;20590;-36
2022/11/11 07:51:44;;;;;;;3.50;2.00;;;11.20;99.90;;;;;;5096109;28;20185;-36
2022/11/11 07:54:10;;;;;;;9.10;2.37;;;11.10;99.90;;;;;;5091511;28;20177;-37
2022/11/11 07:56:35;;;;;;;2.13;1.70;;;11.30;99.90;;;;;;5092152;28;20637;-36
2022/11/11 07:59:01;;;;;;;4.20;2.10;;;11.30;99.90;;;;;;5110215;28;20219;-36
2022/11/11 08:01:27;;;;;;;3.40;2.60;;;11.40;99.90;;;;;;5112248;28;20199;-37
2022/11/11 08:03:53;;;;;;;4.23;2.17;;;11.40;99.90;;;;;;5112072;28;20180;-36
2022/11/11 08:06:20;;;;;;;2.77;2.20;;;11.40;99.90;;;;;;5110768;28;20452;-36
2022/11/11 08:08:46;;;;;;;3.27;2.27;;;11.40;99.90;;;;;;5108157;28;20855;-37
2022/11/11 08:11:12;;;;;;;3.20;2.27;;;11.50;99.90;;;;;;5112060;28;20429;-36
2022/11/11 08:13:41;;;;;;;3.67;2.30;;;11.50;99.90;;;;;;5111305;28;20205;-36
2022/11/11 08:16:08;;;;;;;4.03;1.83;;;11.60;99.90;;;;;;5112272;28;20410;-36
2022/11/11 08:18:34;;;;;;;2.47;2.20;;;11.60;99.90;;;;;;5111557;27;20410;-36
2022/11/11 08:21:01;;;;;;;3.13;1.90;;;11.70;99.90;;;;;;5111721;28;20979;-36
2022/11/11 08:23:33;;;;;;;2.53;2.03;;;11.70;99.90;;;;;;5123112;27;20434;-37
2022/11/11 08:26:03;;;;;;;1.80;1.70;;;11.80;99.90;;;;;;5131999;27;20489;-37
2022/11/11 08:28:31;;;;;;;4.30;1.97;;;11.80;99.90;;;;;;5130141;27;20910;-36
2022/11/11 08:30:59;;;;;;;3.57;2.23;;;11.90;99.90;;;;;;5106317;28;20421;-36
2022/11/11 08:33:25;;;;;;;2.80;1.70;;;12.00;99.90;;;;;;5099903;27;20418;-36
2022/11/11 08:35:54;;;;;;;3.33;2.07;;;12.00;99.90;;;;;;5098428;28;20497;-36
2022/11/11 08:38:22;;;;;;;2.80;2.00;;;12.10;99.90;;;;;;5089898;28;20465;-37
2022/11/11 08:40:48;;;;;;;3.30;1.93;;;12.10;99.90;;;;;;5087854;28;20422;-37
2022/11/11 08:43:14;;;;;;;4.30;1.90;;;12.20;99.90;;;;;;5089865;28;20851;-37
2022/11/11 08:45:40;;;;;;;2.20;1.70;;;12.20;99.90;;;;;;5101621;28;20462;-37
2022/11/11 08:48:08;;;;;;;2.60;2.13;;;12.40;99.90;;;;;;5110662;28;20203;-36
2022/11/11 08:50:35;;;;;;;2.00;1.67;;;12.50;99.90;;;;;;5110053;28;20180;-37
2022/11/11 08:53:01;;;;;;;2.10;1.90;;;12.60;99.90;;;;;;5110171;28;20417;-37
2022/11/11 08:55:27;;;;;;;2.37;1.97;;;12.70;99.90;;;;;;5109841;28;20999;-36
2022/11/11 08:58:00;;;;;;;3.63;2.20;;;12.80;99.90;;;;;;5109758;28;20204;-37
2022/11/11 09:00:26;;;;;;;5.23;2.27;;;13.00;99.90;;;;;;5110516;28;20709;-37
2022/11/11 09:02:52;;;;;;;2.73;1.77;;;13.10;99.90;;;;;;5110953;27;20417;-36
2022/11/11 09:05:17;;;;;;;3.30;1.87;;;13.20;99.90;;;;;;5110874;28;20467;-36
2022/11/11 09:07:43;;;;;;;4.40;1.73;;;13.40;99.90;;;;;;5110945;28;20219;-36
2022/11/11 09:10:09;;;;;;;3.47;1.63;;;13.50;99.90;;;;;;5110839;28;20248;-37
2022/11/11 09:12:34;;;;;;;1.50;1.20;;;13.60;99.90;;;;;;5110583;28;20207;-36
2022/11/11 09:15:00;;;;;;;2.50;1.80;;;13.60;99.90;;;;;;5110739;28;20187;-37
2022/11/11 09:17:26;;;;;;;5.10;2.00;;;13.60;99.90;;;;;;5111155;28;20222;-37
2022/11/11 09:19:52;;;;;;;2.30;1.57;;;13.60;99.90;;;;;;5110356;28;20172;-37
2022/11/11 09:22:18;;;;;;;2.30;1.70;;;13.60;99.90;;;;;;5110685;28;20409;-37
2022/11/11 09:24:44;;;;;;;4.03;1.90;;;13.70;99.90;;;;;;5110559;27;21111;-37
2022/11/11 09:27:10;;;;;;;1.93;1.60;;;13.80;99.90;;;;;;5109420;28;20180;-37
2022/11/11 09:29:36;;;;;;;4.67;1.53;;;13.90;99.90;;;;;;5110231;28;20176;-37
2022/11/11 09:32:02;;;;;;;4.90;1.90;;;14.00;99.90;;;;;;5109506;28;20709;-36
2022/11/11 09:34:28;;;;;;;3.80;1.83;;;14.10;99.90;;;;;;5108645;28;20421;-36
2022/11/11 09:36:54;;;;;;;4.23;2.10;;;14.20;99.90;;;;;;5110134;28;20809;-37
2022/11/11 09:39:19;;;;;;;2.80;1.90;;;14.20;99.90;;;;;;5109841;28;20171;-36
2022/11/11 09:42:27;;;;;;;2.87;1.47;;;14.30;99.90;;;;;;5110497;28;20180;-37
2022/11/11 09:45:11;;;;;;;3.20;1.70;;;14.40;99.90;;;;;;5109795;27;20180;-37
2022/11/11 09:48:02;;;;;;;2.43;1.67;;;14.60;99.90;;;;;;5110200;28;20469;-37
2022/11/11 09:50:31;;;;;;;3.07;1.50;;;14.80;99.90;;;;;;5109690;28;20456;-37
2022/11/11 09:53:05;;;;;;;5.67;1.93;;;14.80;99.90;;;;;;5109891;27;20421;-37
2022/11/11 09:55:37;;;;;;;2.00;1.70;;;14.90;99.90;;;;;;5109336;28;20413;-37
2022/11/11 09:58:25;;;;;;;1.60;1.10;;;15.00;99.90;;;;;;5110020;28;20482;-37
2022/11/11 10:01:00;;;;;;;1.50;1.27;;;15.10;99.90;;;;;;5109926;28;20409;-37
2022/11/11 10:03:29;;;;;;;1.80;1.30;;;15.20;99.90;;;;;;5108279;28;20496;-37
2022/11/11 10:06:17;;;;;;;4.40;1.97;;;15.30;99.90;;;;;;5109555;28;20433;-36
2022/11/11 10:09:02;;;;;;;5.60;1.67;;;15.50;99.90;;;;;;5109422;28;20532;-37
2022/11/11 10:12:05;;;;;;;2.27;1.33;;;15.60;99.90;;;;;;5108969;28;20754;-37
2022/11/11 10:14:49;;;;;;;2.20;1.03;;;15.60;99.90;;;;;;5109077;28;20907;-37
2022/11/11 10:17:43;;;;;;;3.97;2.00;;;15.70;99.90;;;;;;5109458;28;20457;-37
2022/11/11 10:20:29;;;;;;;4.23;1.30;;;15.70;99.90;;;;;;5107917;28;20414;-37
2022/11/11 10:23:03;;;;;;;2.77;1.40;;;15.70;99.90;;;;;;5108828;28;20417;-37
2022/11/11 10:25:29;;;;;;;3.10;1.90;;;15.60;99.90;;;;;;5109588;28;20500;-36
2022/11/11 10:27:59;;;;;;;2.30;1.33;;;15.60;99.90;;;;;;5109274;28;20409;-37
2022/11/11 10:30:29;;;;;;;2.20;1.37;;;15.50;99.90;;;;;;5107944;28;20414;-37
2022/11/11 10:33:00;;;;;;;2.10;1.40;;;15.50;99.70;;;;;;5107553;28;20409;-37
2022/11/11 10:35:33;;;;;;;2.60;1.50;;;15.50;99.90;;;;;;5109217;28;20815;-36
2022/11/11 10:38:36;;;;;;;2.67;1.23;;;15.40;99.90;;;;;;5109298;28;20485;-37
2022/11/11 10:41:33;;;;;;;2.47;1.40;;;15.40;99.90;;;;;;5109384;28;20409;-37
2022/11/11 10:43:59;;;;;;;2.40;1.60;;;15.30;99.90;;;;;;5109163;28;20406;-37
2022/11/11 10:46:31;;;;;;;2.90;1.40;;;15.30;99.90;;;;;;5109148;28;20429;-38
2022/11/11 10:49:20;;;;;;;4.23;1.27;;;15.20;99.90;;;;;;5108988;28;20175;-37
2022/11/11 10:51:54;;;;;;;2.30;1.37;;;15.20;99.90;;;;;;5109024;28;20418;-37
2022/11/11 10:55:05;;;;;;;1.73;1.17;;;15.20;99.90;;;;;;5108637;28;20413;-36
2022/11/11 10:57:36;;;;;;;3.70;1.43;;;15.10;99.90;;;;;;5065240;28;21056;-37
2022/11/11 11:00:07;;;;;;;2.50;1.50;;;15.20;99.90;;;;;;5101218;28;20923;-37
2022/11/11 11:02:55;;;;;;;1.77;1.30;;;15.30;99.90;;;;;;5108807;28;20432;-37
2022/11/11 11:05:27;;;;;;;2.80;1.40;;;15.30;99.90;;;;;;5108954;28;20439;-37
2022/11/11 11:08:00;;;;;;;1.73;1.30;;;15.40;99.90;;;;;;5108704;28;20425;-37
2022/11/11 11:10:37;;;;;;;1.87;1.50;;;15.50;99.90;;;;;;5108878;28;20420;-37
2022/11/11 11:13:06;;;;;;;1.90;1.40;;;15.50;99.90;;;;;;5108420;28;20445;-37
2022/11/11 11:15:36;;;;;;;3.10;1.30;;;15.60;99.80;;;;;;5108575;28;20426;-37
2022/11/11 11:18:07;;;;;;;4.60;1.23;;;15.60;99.90;;;;;;5108620;28;20841;-38
2022/11/11 11:20:33;;;;;;;2.40;1.07;;;15.60;99.90;;;;;;5108450;28;20576;-37
2022/11/11 11:23:00;;;;;;;1.07;0.97;;;15.70;99.90;;;;;;5109542;28;20478;-37
2022/11/11 11:25:30;;;;;;;2.10;1.17;;;15.80;99.90;;;;;;5112798;27;20425;-36
2022/11/11 11:28:08;;;;;;;2.83;1.10;;;15.80;99.40;;;;;;5112746;28;20428;-37
2022/11/11 11:30:34;;;;;;;1.70;0.93;;;15.90;99.00;;;;;;5112811;28;20434;-37
2022/11/11 11:33:06;;;;;;;1.50;1.03;;;16.00;98.80;;;;;;5110966;28;20784;-37
2022/11/11 11:35:34;;;;;;;1.93;1.17;;;16.10;97.80;;;;;;5112758;28;20199;-37
2022/11/11 11:38:01;;;;;;;3.07;1.37;;;16.10;98.30;;;;;;5111548;28;20844;-36
2022/11/11 11:40:27;;;;;;;2.13;1.20;;;16.20;98.30;;;;;;5112238;28;20838;-37
2022/11/11 11:42:53;;;;;;;1.60;1.20;;;16.20;98.50;;;;;;5111163;28;20414;-37
2022/11/11 11:45:23;;;;;;;2.07;1.10;;;16.30;97.80;;;;;;5112294;28;20490;-35
2022/11/11 11:47:55;;;;;;;1.60;1.00;;;16.30;97.60;;;;;;5112374;28;20232;-34
2022/11/11 11:50:21;;;;;;;2.07;1.20;;;16.30;97.30;;;;;;5110412;28;20425;-34
2022/11/11 11:53:05;;;;;;;1.13;1.03;;;16.30;97.90;;;;;;5112342;28;21019;-34
2022/11/11 11:55:42;;;;;;;3.50;1.30;;;16.30;97.30;;;;;;5112015;28;20175;-35
2022/11/11 11:58:30;;;;;;;2.10;1.10;;;16.20;97.70;;;;;;5112367;28;20819;-34
2022/11/11 12:01:18;;;;;;;2.40;1.10;;;16.10;97.00;;;;;;5112304;27;20398;-34
2022/11/11 12:03:49;;;;;;;2.40;1.10;;;16.10;97.70;;;;;;5111987;28;20414;-34
2022/11/11 12:06:28;;;;;;;1.90;0.93;;;16.10;97.60;;;;;;5111864;28;20462;-35
2022/11/11 12:09:02;;;;;;;4.73;1.10;;;16.10;97.70;;;;;;5111625;28;20489;-34
2022/11/11 12:12:04;;;;;;;1.40;1.10;;;16.00;97.80;;;;;;5110723;28;20419;-34
2022/11/11 12:14:57;;;;;;;1.60;0.87;;;16.00;97.50;;;;;;5111813;28;20456;-34
2022/11/11 12:17:23;;;;;;;1.80;1.23;;;15.80;97.40;;;;;;5112022;28;20543;-35
2022/11/11 12:20:10;;;;;;;2.50;0.97;;;15.80;97.90;;;;;;5110254;28;20477;-34
2022/11/11 12:23:01;;;;;;;2.17;1.03;;;15.70;97.90;;;;;;5111474;28;20213;-34
2022/11/11 12:25:57;;;;;;;6.00;1.37;;;15.70;98.10;;;;;;5111901;28;20414;-35
2022/11/11 12:28:38;;;;;;;2.37;1.30;;;15.70;97.60;;;;;;5111181;28;20512;-34
2022/11/11 12:31:24;;;;;;;1.23;0.90;;;15.60;98.00;;;;;;5111847;28;20927;-34
2022/11/11 12:34:31;;;;;;;1.30;0.90;;;15.60;97.80;;;;;;5109574;28;20413;-35
2022/11/11 12:37:11;;;;;;;3.23;1.03;;;15.50;98.40;;;;;;5111642;28;20449;-35
2022/11/11 12:39:45;;;;;;;1.20;0.97;;;15.50;98.30;;;;;;5111106;28;20436;-34
2022/11/11 12:42:35;;;;;;;2.73;1.00;;;15.50;98.20;;;;;;5111323;28;20470;-35
2022/11/11 12:45:17;;;;;;;1.70;1.03;;;15.50;98.50;;;;;;5111406;28;20481;-34
2022/11/11 12:47:49;;;;;;;1.93;1.23;;;15.50;98.60;;;;;;5111493;28;20427;-34
2022/11/11 12:50:24;;;;;;;1.90;1.20;;;15.40;98.80;;;;;;5110875;28;20420;-36
2022/11/11 12:53:04;;;;;;;1.43;1.13;;;15.50;98.80;;;;;;5110778;28;20470;-35
2022/11/11 12:56:07;;;;;;;1.83;1.17;;;15.50;98.60;;;;;;5109503;28;20783;-34
2022/11/11 12:58:43;;;;;;;1.60;1.20;;;15.50;98.60;;;;;;5110835;28;20436;-35
2022/11/11 13:01:28;;;;;;;1.70;1.13;;;15.50;98.80;;;;;;5110860;28;20412;-35
2022/11/11 13:03:54;;;;;;;1.63;0.77;;;15.50;98.90;;;;;;5111313;28;20409;-37
2022/11/11 13:06:43;;;;;;;5.00;2.30;;;15.40;98.40;;;;;;5110841;28;20957;-37
2022/11/11 13:09:21;;;;;;;1.57;1.10;;;15.50;98.30;;;;;;5109377;28;20530;-37
2022/11/11 13:12:20;;;;;;;2.40;1.43;;;15.40;98.80;;;;;;5111060;28;20424;-37
2022/11/11 13:14:51;;;;;;;2.30;1.30;;;15.40;99.00;;;;;;5110845;28;20414;-37
2022/11/11 13:17:17;;;;;;;2.63;1.10;;;15.30;99.00;;;;;;5110923;28;20586;-37
2022/11/11 13:19:49;;;;;;;1.40;1.10;;;15.30;99.20;;;;;;5110352;28;20990;-37
2022/11/11 13:22:25;;;;;;;2.87;1.20;;;15.30;99.30;;;;;;5110557;28;20491;-37
2022/11/11 13:24:52;;;;;;;2.17;1.03;;;15.40;99.10;;;;;;5110690;28;20461;-37
2022/11/11 13:27:27;;;;;;;2.83;1.10;;;15.30;99.00;;;;;;5109394;28;20424;-37
2022/11/11 13:30:18;;;;;;;1.40;1.00;;;15.30;99.70;;;;;;5110628;28;20417;-37
2022/11/11 13:33:04;;;;;;;2.60;1.03;;;15.30;99.70;;;;;;5108898;28;20506;-38
2022/11/11 13:35:44;;;;;;;2.20;1.13;;;15.30;99.00;;;;;;5110356;28;20450;-38
2022/11/11 13:38:42;;;;;;;3.20;1.10;;;15.30;99.20;;;;;;5110391;28;20491;-37
2022/11/11 13:41:09;;;;;;;1.33;1.10;;;15.40;99.10;;;;;;5110482;28;20847;-37
2022/11/11 13:43:44;;;;;;;3.50;1.20;;;15.40;99.10;;;;;;5110186;28;20830;-37
2022/11/11 13:46:39;;;;;;;1.50;0.93;;;15.40;99.10;;;;;;5109019;28;20421;-37
2022/11/11 13:49:28;;;;;;;3.33;1.10;;;15.50;99.30;;;;;;5109730;28;20445;-38
2022/11/11 13:52:03;;;;;;;1.73;0.87;;;15.40;99.70;;;;;;5103161;28;20429;-37
2022/11/11 13:54:41;;;;;;;1.40;1.00;;;15.40;99.90;;;;;;5109925;28;20413;-38
2022/11/11 13:57:13;;;;;;;2.17;1.00;;;15.40;99.90;;;;;;5108364;28;20453;-38
2022/11/11 13:59:48;;;;;;;2.70;1.47;;;15.40;99.80;;;;;;5109707;28;20802;-36
2022/11/11 14:02:19;;;;;;;1.87;1.20;;;15.40;99.90;;;;;;5109900;28;20405;-37
2022/11/11 14:05:00;;;;;;;2.27;0.90;;;15.30;99.90;;;;;;5109821;28;20485;-37
2022/11/11 14:07:46;;;;;;;4.93;1.10;;;15.30;99.90;;;;;;5109530;28;20647;-37
2022/11/11 14:10:17;;;;;;;1.60;1.10;;;15.30;99.90;;;;;;5109379;27;20451;-38
2022/11/11 14:12:49;;;;;;;1.60;1.13;;;15.20;99.90;;;;;;5109473;28;20784;-37
2022/11/11 14:15:39;;;;;;;2.87;1.47;;;15.30;99.90;;;;;;5109728;28;20791;-38
2022/11/11 14:18:16;;;;;;;2.90;1.80;;;15.30;99.90;;;;;;5109239;28;20449;-37
2022/11/11 14:20:50;;;;;;;3.23;1.30;;;15.30;99.90;;;;;;5109239;28;20416;-36